sensor_id;sensor_type;location;lat;lon;timestamp;pressure;altitude;pressure_sealevel;temperature;humidity
74958;BME280;63741;42.624;26.276;2023-04-24T00:01:37;99699.53;;;9.98;64.70
74958;BME280;63741;42.624;26.276;2023-04-24T00:04:06;99694.03;;;10.01;62.74
74958;BME280;63741;42.624;26.276;2023-04-24T00:06:34;99694.09;;;9.88;63.19
74958;BME280;63741;42.624;26.276;2023-04-24T00:09:01;99695.22;;;9.97;63.13
74958;BME280;63741;42.624;26.276;2023-04-24T00:11:28;99686.25;;;9.86;63.03
74958;BME280;63741;42.624;26.276;2023-04-24T00:13:56;99691.66;;;9.85;62.58
74958;BME280;63741;42.624;26.276;2023-04-24T00:16:23;99681.22;;;9.83;62.79
74958;BME280;63741;42.624;26.276;2023-04-24T00:18:50;99689.50;;;9.79;62.48
74958;BME280;63741;42.624;26.276;2023-04-24T00:21:19;99684.13;;;9.68;63.46
74958;BME280;63741;42.624;26.276;2023-04-24T00:23:47;99676.97;;;9.70;62.05
74958;BME280;63741;42.624;26.276;2023-04-24T00:26:14;99678.44;;;9.74;63.05
74958;BME280;63741;42.624;26.276;2023-04-24T00:28:41;99684.13;;;9.68;63.50
74958;BME280;63741;42.624;26.276;2023-04-24T00:31:08;99683.00;;;9.35;63.27
74958;BME280;63741;42.624;26.276;2023-04-24T00:33:35;99685.31;;;9.40;63.96
74958;BME280;63741;42.624;26.276;2023-04-24T00:36:02;99681.94;;;9.38;63.89
74958;BME280;63741;42.624;26.276;2023-04-24T00:38:29;99678.97;;;9.42;63.51
74958;BME280;63741;42.624;26.276;2023-04-24T00:40:56;99678.06;;;9.54;63.61
74958;BME280;63741;42.624;26.276;2023-04-24T00:43:23;99675.91;;;9.35;64.63
74958;BME280;63741;42.624;26.276;2023-04-24T00:45:50;99671.06;;;9.42;64.61
74958;BME280;63741;42.624;26.276;2023-04-24T00:48:17;99668.78;;;9.49;64.80
74958;BME280;63741;42.624;26.276;2023-04-24T00:50:45;99663.50;;;9.25;65.79
74958;BME280;63741;42.624;26.276;2023-04-24T00:53:13;99670.19;;;9.42;64.38
74958;BME280;63741;42.624;26.276;2023-04-24T00:55:40;99660.50;;;9.42;64.49
74958;BME280;63741;42.624;26.276;2023-04-24T00:58:07;99665.16;;;9.62;64.65
74958;BME280;63741;42.624;26.276;2023-04-24T01:00:34;99663.94;;;9.55;64.65
74958;BME280;63741;42.624;26.276;2023-04-24T01:03:04;99655.22;;;9.42;66.17
74958;BME280;63741;42.624;26.276;2023-04-24T01:05:32;99652.31;;;9.21;65.86
74958;BME280;63741;42.624;26.276;2023-04-24T01:08:01;99660.22;;;9.21;66.31
74958;BME280;63741;42.624;26.276;2023-04-24T01:10:29;99648.53;;;9.13;65.36
74958;BME280;63741;42.624;26.276;2023-04-24T01:12:58;99652.72;;;9.15;66.04
74958;BME280;63741;42.624;26.276;2023-04-24T01:15:26;99646.53;;;9.03;65.95
74958;BME280;63741;42.624;26.276;2023-04-24T01:17:53;99654.59;;;9.02;66.43
74958;BME280;63741;42.624;26.276;2023-04-24T01:20:20;99651.94;;;9.02;65.75
74958;BME280;63741;42.624;26.276;2023-04-24T01:22:48;99640.56;;;8.89;65.81
74958;BME280;63741;42.624;26.276;2023-04-24T01:25:15;99641.94;;;8.94;66.35
74958;BME280;63741;42.624;26.276;2023-04-24T01:27:42;99637.28;;;8.98;65.70
74958;BME280;63741;42.624;26.276;2023-04-24T01:30:11;99634.53;;;8.99;66.20
74958;BME280;63741;42.624;26.276;2023-04-24T01:32:38;99632.66;;;8.89;66.52
74958;BME280;63741;42.624;26.276;2023-04-24T01:35:07;99639.28;;;8.94;66.22
74958;BME280;63741;42.624;26.276;2023-04-24T01:37:34;99641.81;;;8.96;67.29
74958;BME280;63741;42.624;26.276;2023-04-24T01:40:05;99637.63;;;8.80;66.89
74958;BME280;63741;42.624;26.276;2023-04-24T01:42:34;99634.03;;;8.81;67.36
74958;BME280;63741;42.624;26.276;2023-04-24T01:45:02;99633.59;;;8.88;66.85
74958;BME280;63741;42.624;26.276;2023-04-24T01:47:30;99625.78;;;8.86;66.65
74958;BME280;63741;42.624;26.276;2023-04-24T01:49:58;99636.22;;;8.75;66.83
74958;BME280;63741;42.624;26.276;2023-04-24T01:52:25;99629.53;;;8.71;68.49
74958;BME280;63741;42.624;26.276;2023-04-24T01:54:52;99619.47;;;8.76;67.63
74958;BME280;63741;42.624;26.276;2023-04-24T01:57:20;99627.22;;;8.41;68.54
74958;BME280;63741;42.624;26.276;2023-04-24T01:59:46;99620.03;;;8.55;68.33
74958;BME280;63741;42.624;26.276;2023-04-24T02:02:14;99624.25;;;8.58;68.36
74958;BME280;63741;42.624;26.276;2023-04-24T02:04:41;99624.25;;;8.58;67.98
74958;BME280;63741;42.624;26.276;2023-04-24T02:07:08;99630.03;;;8.76;67.67
74958;BME280;63741;42.624;26.276;2023-04-24T02:09:35;99627.81;;;8.70;67.82
74958;BME280;63741;42.624;26.276;2023-04-24T02:12:02;99628.97;;;8.66;67.86
74958;BME280;63741;42.624;26.276;2023-04-24T02:14:29;99632.34;;;8.68;68.07
74958;BME280;63741;42.624;26.276;2023-04-24T02:16:55;99626.75;;;8.72;67.64
74958;BME280;63741;42.624;26.276;2023-04-24T02:19:22;99620.53;;;8.73;67.74
74958;BME280;63741;42.624;26.276;2023-04-24T02:21:50;99618.41;;;8.78;68.20
74958;BME280;63741;42.624;26.276;2023-04-24T02:24:17;99617.78;;;8.75;67.62
74958;BME280;63741;42.624;26.276;2023-04-24T02:26:43;99626.00;;;8.70;68.97
74958;BME280;63741;42.624;26.276;2023-04-24T02:29:10;99624.84;;;8.74;67.61
74958;BME280;63741;42.624;26.276;2023-04-24T02:31:37;99624.31;;;8.82;67.81
74958;BME280;63741;42.624;26.276;2023-04-24T02:34:05;99617.38;;;8.68;67.28
74958;BME280;63741;42.624;26.276;2023-04-24T02:36:32;99618.97;;;8.58;68.27
74958;BME280;63741;42.624;26.276;2023-04-24T02:38:59;99625.94;;;8.46;69.47
74958;BME280;63741;42.624;26.276;2023-04-24T02:41:27;99621.81;;;8.42;69.31
74958;BME280;63741;42.624;26.276;2023-04-24T02:43:59;99617.88;;;8.22;69.11
74958;BME280;63741;42.624;26.276;2023-04-24T02:46:26;99615.88;;;8.26;68.98
74958;BME280;63741;42.624;26.276;2023-04-24T02:48:53;99623.03;;;8.24;69.37
74958;BME280;63741;42.624;26.276;2023-04-24T02:51:20;99620.44;;;8.37;68.40
74958;BME280;63741;42.624;26.276;2023-04-24T02:53:47;99620.84;;;8.30;68.82
74958;BME280;63741;42.624;26.276;2023-04-24T02:56:14;99620.72;;;8.19;69.77
74958;BME280;63741;42.624;26.276;2023-04-24T02:58:41;99620.19;;;8.14;69.33
74958;BME280;63741;42.624;26.276;2023-04-24T03:01:08;99620.09;;;8.16;69.96
74958;BME280;63741;42.624;26.276;2023-04-24T03:03:38;99624.97;;;8.22;69.37
74958;BME280;63741;42.624;26.276;2023-04-24T03:06:06;99619.25;;;8.28;69.44
74958;BME280;63741;42.624;26.276;2023-04-24T03:08:34;99621.25;;;8.24;69.62
74958;BME280;63741;42.624;26.276;2023-04-24T03:11:02;99619.47;;;8.25;68.30
74958;BME280;63741;42.624;26.276;2023-04-24T03:13:28;99620.84;;;8.18;69.27
74958;BME280;63741;42.624;26.276;2023-04-24T03:15:56;99626.09;;;8.18;69.71
74958;BME280;63741;42.624;26.276;2023-04-24T03:18:22;99619.03;;;8.05;69.21
74958;BME280;63741;42.624;26.276;2023-04-24T03:20:52;99621.53;;;8.07;69.89
74958;BME280;63741;42.624;26.276;2023-04-24T03:23:18;99618.19;;;8.05;69.39
74958;BME280;63741;42.624;26.276;2023-04-24T03:25:46;99622.00;;;8.14;68.89
74958;BME280;63741;42.624;26.276;2023-04-24T03:28:16;99629.25;;;8.10;69.35
74958;BME280;63741;42.624;26.276;2023-04-24T03:30:47;99620.19;;;8.14;69.00
74958;BME280;63741;42.624;26.276;2023-04-24T03:33:16;99616.59;;;8.15;69.41
74958;BME280;63741;42.624;26.276;2023-04-24T03:35:53;99622.22;;;8.23;68.13
74958;BME280;63741;42.624;26.276;2023-04-24T03:38:20;99615.47;;;8.19;69.25
74958;BME280;63741;42.624;26.276;2023-04-24T03:41:00;99620.22;;;8.27;68.81
74958;BME280;63741;42.624;26.276;2023-04-24T03:43:43;99618.81;;;8.21;69.11
74958;BME280;63741;42.624;26.276;2023-04-24T03:46:10;99627.69;;;8.33;69.55
74958;BME280;63741;42.624;26.276;2023-04-24T03:48:42;99635.00;;;8.42;67.96
74958;BME280;63741;42.624;26.276;2023-04-24T03:51:10;99637.00;;;8.51;67.10
74958;BME280;63741;42.624;26.276;2023-04-24T03:53:40;99638.47;;;8.43;67.18
74958;BME280;63741;42.624;26.276;2023-04-24T03:56:09;99642.06;;;8.42;66.95
74958;BME280;63741;42.624;26.276;2023-04-24T03:58:37;99640.97;;;8.31;67.48
74958;BME280;63741;42.624;26.276;2023-04-24T04:01:04;99639.06;;;8.33;67.73
74958;BME280;63741;42.624;26.276;2023-04-24T04:03:52;99643.09;;;8.26;68.70
74958;BME280;63741;42.624;26.276;2023-04-24T04:06:23;99641.19;;;8.28;67.60
74958;BME280;63741;42.624;26.276;2023-04-24T04:08:52;99648.03;;;8.18;68.90
74958;BME280;63741;42.624;26.276;2023-04-24T04:11:19;99656.31;;;8.12;69.17
74958;BME280;63741;42.624;26.276;2023-04-24T04:13:46;99649.53;;;8.35;68.94
74958;BME280;63741;42.624;26.276;2023-04-24T04:16:17;99647.78;;;8.21;68.14
74958;BME280;63741;42.624;26.276;2023-04-24T04:18:46;99648.13;;;8.04;69.82
74958;BME280;63741;42.624;26.276;2023-04-24T04:21:14;99655.91;;;8.05;69.10
74958;BME280;63741;42.624;26.276;2023-04-24T04:23:41;99657.41;;;8.22;68.86
74958;BME280;63741;42.624;26.276;2023-04-24T04:26:16;99659.50;;;8.04;70.63
74958;BME280;63741;42.624;26.276;2023-04-24T04:29:09;99658.44;;;8.07;71.71
74958;BME280;63741;42.624;26.276;2023-04-24T04:31:40;99661.28;;;8.17;70.51
74958;BME280;63741;42.624;26.276;2023-04-24T04:34:11;99664.56;;;8.20;71.32
74958;BME280;63741;42.624;26.276;2023-04-24T04:36:40;99657.94;;;8.27;71.52
74958;BME280;63741;42.624;26.276;2023-04-24T04:39:22;99667.34;;;8.57;70.37
74958;BME280;63741;42.624;26.276;2023-04-24T04:41:57;99663.34;;;8.51;70.15
74958;BME280;63741;42.624;26.276;2023-04-24T04:44:30;99657.31;;;8.88;69.57
74958;BME280;63741;42.624;26.276;2023-04-24T04:46:59;99652.03;;;9.00;69.64
74958;BME280;63741;42.624;26.276;2023-04-24T04:49:30;99656.78;;;8.95;69.46
74958;BME280;63741;42.624;26.276;2023-04-24T04:51:58;99659.53;;;9.06;69.12
74958;BME280;63741;42.624;26.276;2023-04-24T04:54:26;99661.28;;;9.19;67.96
74958;BME280;63741;42.624;26.276;2023-04-24T04:56:54;99664.09;;;9.28;68.85
74958;BME280;63741;42.624;26.276;2023-04-24T04:59:21;99668.59;;;9.52;67.45
74958;BME280;63741;42.624;26.276;2023-04-24T05:01:53;99663.19;;;9.53;67.79
74958;BME280;63741;42.624;26.276;2023-04-24T05:04:21;99657.69;;;9.56;68.59
74958;BME280;63741;42.624;26.276;2023-04-24T05:06:48;99662.03;;;9.69;68.25
74958;BME280;63741;42.624;26.276;2023-04-24T05:09:15;99651.03;;;9.75;68.67
74958;BME280;63741;42.624;26.276;2023-04-24T05:11:53;99646.97;;;9.82;67.81
74958;BME280;63741;42.624;26.276;2023-04-24T05:14:22;99646.03;;;9.83;68.60
74958;BME280;63741;42.624;26.276;2023-04-24T05:16:49;99649.25;;;10.10;68.50
74958;BME280;63741;42.624;26.276;2023-04-24T05:19:19;99648.69;;;10.18;68.02
74958;BME280;63741;42.624;26.276;2023-04-24T05:21:46;99652.03;;;10.20;67.61
74958;BME280;63741;42.624;26.276;2023-04-24T05:24:13;99647.69;;;10.43;66.30
74958;BME280;63741;42.624;26.276;2023-04-24T05:26:59;99644.31;;;10.52;65.18
74958;BME280;63741;42.624;26.276;2023-04-24T05:29:33;99642.66;;;10.51;64.85
74958;BME280;63741;42.624;26.276;2023-04-24T05:32:00;99646.00;;;10.42;65.32
74958;BME280;63741;42.624;26.276;2023-04-24T05:34:29;99644.81;;;10.46;65.92
74958;BME280;63741;42.624;26.276;2023-04-24T05:36:56;99653.13;;;10.75;65.09
74958;BME280;63741;42.624;26.276;2023-04-24T05:39:24;99648.81;;;10.85;64.03
74958;BME280;63741;42.624;26.276;2023-04-24T05:41:52;99650.09;;;11.02;63.59
74958;BME280;63741;42.624;26.276;2023-04-24T05:44:19;99649.00;;;11.27;63.06
74958;BME280;63741;42.624;26.276;2023-04-24T05:46:47;99649.75;;;11.18;64.57
74958;BME280;63741;42.624;26.276;2023-04-24T05:49:15;99649.34;;;11.34;64.23
74958;BME280;63741;42.624;26.276;2023-04-24T05:51:42;99641.75;;;11.41;63.69
74958;BME280;63741;42.624;26.276;2023-04-24T05:54:09;99649.41;;;11.55;63.06
74958;BME280;63741;42.624;26.276;2023-04-24T05:56:41;99648.59;;;11.54;63.78
74958;BME280;63741;42.624;26.276;2023-04-24T05:59:12;99653.00;;;11.65;64.68
74958;BME280;63741;42.624;26.276;2023-04-24T06:01:39;99655.78;;;12.07;63.87
74958;BME280;63741;42.624;26.276;2023-04-24T06:04:14;99657.97;;;12.02;63.76
74958;BME280;63741;42.624;26.276;2023-04-24T06:06:41;99660.09;;;12.08;64.33
74958;BME280;63741;42.624;26.276;2023-04-24T06:09:09;99659.94;;;12.42;63.37
74958;BME280;63741;42.624;26.276;2023-04-24T06:11:36;99648.59;;;12.39;63.57
74958;BME280;63741;42.624;26.276;2023-04-24T06:14:03;99656.84;;;12.67;64.41
74958;BME280;63741;42.624;26.276;2023-04-24T06:16:36;99647.84;;;12.58;62.82
74958;BME280;63741;42.624;26.276;2023-04-24T06:19:10;99650.25;;;12.61;62.87
74958;BME280;63741;42.624;26.276;2023-04-24T06:21:37;99653.78;;;12.72;62.69
74958;BME280;63741;42.624;26.276;2023-04-24T06:24:04;99645.28;;;12.68;63.31
74958;BME280;63741;42.624;26.276;2023-04-24T06:26:31;99640.59;;;12.81;61.43
74958;BME280;63741;42.624;26.276;2023-04-24T06:28:59;99645.22;;;12.89;62.16
74958;BME280;63741;42.624;26.276;2023-04-24T06:31:26;99647.25;;;13.06;62.56
74958;BME280;63741;42.624;26.276;2023-04-24T06:33:53;99643.97;;;13.24;62.43
74958;BME280;63741;42.624;26.276;2023-04-24T06:36:20;99641.97;;;13.16;60.58
74958;BME280;63741;42.624;26.276;2023-04-24T06:38:47;99647.41;;;13.14;61.12
74958;BME280;63741;42.624;26.276;2023-04-24T06:41:14;99650.69;;;13.28;60.18
74958;BME280;63741;42.624;26.276;2023-04-24T06:43:41;99655.88;;;13.39;59.25
74958;BME280;63741;42.624;26.276;2023-04-24T06:46:08;99653.03;;;13.71;57.04
74958;BME280;63741;42.624;26.276;2023-04-24T06:48:35;99651.31;;;13.70;58.07
74958;BME280;63741;42.624;26.276;2023-04-24T06:51:02;99656.66;;;14.09;58.04
74958;BME280;63741;42.624;26.276;2023-04-24T06:53:29;99648.97;;;13.86;55.81
74958;BME280;63741;42.624;26.276;2023-04-24T06:55:56;99647.41;;;14.23;56.41
74958;BME280;63741;42.624;26.276;2023-04-24T06:58:24;99647.16;;;14.06;56.23
74958;BME280;63741;42.624;26.276;2023-04-24T07:00:51;99643.47;;;14.36;57.47
74958;BME280;63741;42.624;26.276;2023-04-24T07:03:19;99647.44;;;14.03;55.97
74958;BME280;63741;42.624;26.276;2023-04-24T07:05:48;99651.91;;;14.12;56.87
74958;BME280;63741;42.624;26.276;2023-04-24T07:08:15;99650.75;;;14.44;56.34
74958;BME280;63741;42.624;26.276;2023-04-24T07:10:44;99650.34;;;14.49;54.66
74958;BME280;63741;42.624;26.276;2023-04-24T07:13:11;99648.44;;;14.78;55.44
74958;BME280;63741;42.624;26.276;2023-04-24T07:15:38;99650.88;;;14.99;55.62
74958;BME280;63741;42.624;26.276;2023-04-24T07:18:06;99654.38;;;15.00;53.91
74958;BME280;63741;42.624;26.276;2023-04-24T07:20:33;99652.69;;;14.99;53.52
74958;BME280;63741;42.624;26.276;2023-04-24T07:23:00;99654.88;;;15.13;53.25
74958;BME280;63741;42.624;26.276;2023-04-24T07:25:27;99654.59;;;14.79;54.42
74958;BME280;63741;42.624;26.276;2023-04-24T07:27:54;99651.91;;;14.88;52.58
74958;BME280;63741;42.624;26.276;2023-04-24T07:30:21;99646.16;;;15.21;52.63
74958;BME280;63741;42.624;26.276;2023-04-24T07:32:48;99648.44;;;14.78;52.99
74958;BME280;63741;42.624;26.276;2023-04-24T07:35:15;99643.47;;;14.93;51.02
74958;BME280;63741;42.624;26.276;2023-04-24T07:37:42;99641.03;;;15.09;52.07
74958;BME280;63741;42.624;26.276;2023-04-24T07:40:13;99636.91;;;15.42;51.68
74958;BME280;63741;42.624;26.276;2023-04-24T07:42:40;99647.25;;;15.28;51.42
74958;BME280;63741;42.624;26.276;2023-04-24T07:45:07;99649.81;;;15.20;52.65
74958;BME280;63741;42.624;26.276;2023-04-24T07:47:34;99646.09;;;15.30;51.07
74958;BME280;63741;42.624;26.276;2023-04-24T07:50:03;99631.75;;;15.59;52.48
74958;BME280;63741;42.624;26.276;2023-04-24T07:52:30;99646.91;;;15.58;53.08
74958;BME280;63741;42.624;26.276;2023-04-24T07:54:57;99641.03;;;15.55;50.06
74958;BME280;63741;42.624;26.276;2023-04-24T07:57:27;99646.41;;;15.73;50.38
74958;BME280;63741;42.624;26.276;2023-04-24T07:59:54;99639.63;;;15.96;51.98
74958;BME280;63741;42.624;26.276;2023-04-24T08:02:22;99641.66;;;16.20;51.69
74958;BME280;63741;42.624;26.276;2023-04-24T08:04:53;99633.44;;;16.13;49.21
74958;BME280;63741;42.624;26.276;2023-04-24T08:07:25;99639.22;;;16.27;52.30
74958;BME280;63741;42.624;26.276;2023-04-24T08:09:52;99637.72;;;16.50;51.25
74958;BME280;63741;42.624;26.276;2023-04-24T08:12:19;99644.16;;;16.91;50.32
74958;BME280;63741;42.624;26.276;2023-04-24T08:14:46;99631.56;;;17.18;49.90
74958;BME280;63741;42.624;26.276;2023-04-24T08:17:13;99629.81;;;17.43;49.30
74958;BME280;63741;42.624;26.276;2023-04-24T08:19:40;99629.66;;;17.44;50.11
74958;BME280;63741;42.624;26.276;2023-04-24T08:22:15;99620.47;;;17.47;50.14
74958;BME280;63741;42.624;26.276;2023-04-24T08:24:42;99621.50;;;17.62;48.91
74958;BME280;63741;42.624;26.276;2023-04-24T08:27:09;99620.47;;;17.39;48.95
74958;BME280;63741;42.624;26.276;2023-04-24T08:29:37;99617.00;;;17.55;47.87
74958;BME280;63741;42.624;26.276;2023-04-24T08:32:04;99619.41;;;17.74;47.05
74958;BME280;63741;42.624;26.276;2023-04-24T08:34:31;99622.59;;;17.78;47.41
74958;BME280;63741;42.624;26.276;2023-04-24T08:36:58;99627.59;;;17.89;47.88
74958;BME280;63741;42.624;26.276;2023-04-24T08:39:25;99621.44;;;18.13;48.56
74958;BME280;63741;42.624;26.276;2023-04-24T08:41:52;99613.50;;;17.71;48.36
74958;BME280;63741;42.624;26.276;2023-04-24T08:44:20;99615.34;;;17.70;46.90
74958;BME280;63741;42.624;26.276;2023-04-24T08:46:50;99619.06;;;17.93;46.83
74958;BME280;63741;42.624;26.276;2023-04-24T08:49:18;99618.75;;;18.13;46.27
74958;BME280;63741;42.624;26.276;2023-04-24T08:51:45;99620.41;;;18.14;46.10
74958;BME280;63741;42.624;26.276;2023-04-24T08:54:14;99612.38;;;17.98;45.21
74958;BME280;63741;42.624;26.276;2023-04-24T08:56:43;99618.75;;;18.05;46.75
74958;BME280;63741;42.624;26.276;2023-04-24T08:59:13;99607.34;;;17.94;45.63
